sensor_id;sensor_type;location;lat;lon;timestamp;pressure;altitude;pressure_sealevel;temperature;humidity
42519;BME280;28147;47.520;18.920;2022-11-04T00:01:44;98254.09;;;15.18;64.84
42519;BME280;28147;47.520;18.920;2022-11-04T00:04:12;98236.66;;;15.25;64.52
42519;BME280;28147;47.520;18.920;2022-11-04T00:06:38;98248.47;;;15.14;64.64
42519;BME280;28147;47.520;18.920;2022-11-04T00:09:08;98250.53;;;14.71;66.36
42519;BME280;28147;47.520;18.920;2022-11-04T00:11:34;98244.69;;;15.15;64.77
42519;BME280;28147;47.520;18.920;2022-11-04T00:14:18;98241.69;;;14.81;65.89
42519;BME280;28147;47.520;18.920;2022-11-04T00:16:44;98238.78;;;15.03;65.22
42519;BME280;28147;47.520;18.920;2022-11-04T00:19:28;98229.91;;;14.92;65.75
42519;BME280;28147;47.520;18.920;2022-11-04T00:22:13;98230.38;;;14.53;66.79
42519;BME280;28147;47.520;18.920;2022-11-04T00:24:57;98222.41;;;14.06;68.91
42519;BME280;28147;47.520;18.920;2022-11-04T00:27:41;98219.63;;;14.48;67.33
42519;BME280;28147;47.520;18.920;2022-11-04T00:30:25;98215.19;;;14.11;68.60
42519;BME280;28147;47.520;18.920;2022-11-04T00:32:50;98216.28;;;14.16;68.31
42519;BME280;28147;47.520;18.920;2022-11-04T00:35:34;98207.53;;;14.41;67.68
42519;BME280;28147;47.520;18.920;2022-11-04T00:37:59;98202.03;;;14.68;66.68
42519;BME280;28147;47.520;18.920;2022-11-04T00:40:25;98210.34;;;14.08;68.01
42519;BME280;28147;47.520;18.920;2022-11-04T00:42:50;98199.34;;;14.05;69.11
42519;BME280;28147;47.520;18.920;2022-11-04T00:45:16;98196.50;;;14.27;67.91
42519;BME280;28147;47.520;18.920;2022-11-04T00:47:41;98199.47;;;14.35;67.80
42519;BME280;28147;47.520;18.920;2022-11-04T00:50:07;98187.91;;;14.20;67.96
42519;BME280;28147;47.520;18.920;2022-11-04T00:52:32;98185.44;;;14.08;68.30
42519;BME280;28147;47.520;18.920;2022-11-04T00:54:58;98195.41;;;14.18;68.30
42519;BME280;28147;47.520;18.920;2022-11-04T00:57:23;98193.59;;;13.76;69.55
42519;BME280;28147;47.520;18.920;2022-11-04T00:59:48;98188.66;;;14.05;68.70
42519;BME280;28147;47.520;18.920;2022-11-04T01:02:14;98189.13;;;13.86;69.79
42519;BME280;28147;47.520;18.920;2022-11-04T01:04:39;98184.50;;;13.77;70.36
42519;BME280;28147;47.520;18.920;2022-11-04T01:07:05;98191.66;;;13.66;70.74
42519;BME280;28147;47.520;18.920;2022-11-04T01:09:30;98189.78;;;14.14;69.04
42519;BME280;28147;47.520;18.920;2022-11-04T01:11:56;98188.72;;;14.20;68.34
42519;BME280;28147;47.520;18.920;2022-11-04T01:14:21;98187.69;;;14.31;68.59
42519;BME280;28147;47.520;18.920;2022-11-04T01:16:49;98189.66;;;14.51;67.47
42519;BME280;28147;47.520;18.920;2022-11-04T01:19:15;98187.84;;;14.04;69.20
42519;BME280;28147;47.520;18.920;2022-11-04T01:21:41;98173.25;;;13.75;69.99
42519;BME280;28147;47.520;18.920;2022-11-04T01:24:06;98166.56;;;13.77;70.10
42519;BME280;28147;47.520;18.920;2022-11-04T01:26:32;98165.03;;;13.86;69.62
42519;BME280;28147;47.520;18.920;2022-11-04T01:28:57;98167.31;;;14.25;68.74
42519;BME280;28147;47.520;18.920;2022-11-04T01:31:26;98168.88;;;14.16;68.35
42519;BME280;28147;47.520;18.920;2022-11-04T01:33:53;98158.16;;;14.11;68.88
42519;BME280;28147;47.520;18.920;2022-11-04T01:36:19;98160.34;;;14.19;68.73
42519;BME280;28147;47.520;18.920;2022-11-04T01:38:45;98134.13;;;14.31;68.08
42519;BME280;28147;47.520;18.920;2022-11-04T01:43:43;98124.44;;;14.10;68.27
42519;BME280;28147;47.520;18.920;2022-11-04T01:46:13;98124.00;;;14.44;68.13
42519;BME280;28147;47.520;18.920;2022-11-04T01:48:41;98122.16;;;14.54;67.27
42519;BME280;28147;47.520;18.920;2022-11-04T01:51:07;98121.94;;;14.81;66.48
42519;BME280;28147;47.520;18.920;2022-11-04T01:53:36;98112.78;;;14.62;66.83
42519;BME280;28147;47.520;18.920;2022-11-04T01:56:08;98114.41;;;14.73;66.47
42519;BME280;28147;47.520;18.920;2022-11-04T01:58:49;98101.75;;;14.38;67.38
42519;BME280;28147;47.520;18.920;2022-11-04T02:01:15;98100.69;;;14.44;67.91
42519;BME280;28147;47.520;18.920;2022-11-04T02:03:57;98102.03;;;14.36;68.38
42519;BME280;28147;47.520;18.920;2022-11-04T02:06:46;98095.09;;;14.61;67.28
42519;BME280;28147;47.520;18.920;2022-11-04T02:09:13;98090.56;;;14.51;67.90
42519;BME280;28147;47.520;18.920;2022-11-04T02:11:39;98078.44;;;14.33;68.57
42519;BME280;28147;47.520;18.920;2022-11-04T02:14:23;98087.59;;;14.58;67.57
42519;BME280;28147;47.520;18.920;2022-11-04T02:16:48;98091.38;;;14.88;66.55
42519;BME280;28147;47.520;18.920;2022-11-04T02:28:21;98073.50;;;13.79;70.35
42519;BME280;28147;47.520;18.920;2022-11-04T02:30:52;98055.13;;;14.19;69.35
42519;BME280;28147;47.520;18.920;2022-11-04T02:33:27;98058.69;;;14.75;67.33
42519;BME280;28147;47.520;18.920;2022-11-04T02:36:06;98051.41;;;14.96;66.57
42519;BME280;28147;47.520;18.920;2022-11-04T02:41:19;98040.72;;;14.76;67.45
42519;BME280;28147;47.520;18.920;2022-11-04T02:44:09;98043.66;;;15.05;66.80
42519;BME280;28147;47.520;18.920;2022-11-04T02:49:19;98040.97;;;14.44;68.49
42519;BME280;28147;47.520;18.920;2022-11-04T02:51:59;98036.13;;;14.35;69.14
42519;BME280;28147;47.520;18.920;2022-11-04T02:54:32;98043.13;;;14.82;67.71
42519;BME280;28147;47.520;18.920;2022-11-04T02:57:00;98050.09;;;15.04;66.64
42519;BME280;28147;47.520;18.920;2022-11-04T02:59:29;98057.88;;;14.85;67.31
42519;BME280;28147;47.520;18.920;2022-11-04T03:01:57;98043.16;;;14.77;67.41
42519;BME280;28147;47.520;18.920;2022-11-04T03:04:29;98043.66;;;14.84;67.21
42519;BME280;28147;47.520;18.920;2022-11-04T03:06:56;98035.09;;;14.88;66.86
42519;BME280;28147;47.520;18.920;2022-11-04T03:09:26;98018.78;;;14.58;67.53
42519;BME280;28147;47.520;18.920;2022-11-04T03:11:59;98004.03;;;14.71;67.32
42519;BME280;28147;47.520;18.920;2022-11-04T03:14:34;98001.03;;;14.01;70.11
42519;BME280;28147;47.520;18.920;2022-11-04T03:17:03;98002.41;;;14.14;69.34
42519;BME280;28147;47.520;18.920;2022-11-04T03:19:53;98012.06;;;14.71;67.15
42519;BME280;28147;47.520;18.920;2022-11-04T03:22:26;98010.97;;;14.31;68.35
42519;BME280;28147;47.520;18.920;2022-11-04T03:24:54;97993.03;;;14.78;66.96
42519;BME280;28147;47.520;18.920;2022-11-04T03:29:58;97987.97;;;14.51;68.62
42519;BME280;28147;47.520;18.920;2022-11-04T03:35:18;97990.59;;;14.35;68.97
42519;BME280;28147;47.520;18.920;2022-11-04T03:37:44;97982.56;;;14.05;70.37
42519;BME280;28147;47.520;18.920;2022-11-04T03:40:12;97987.91;;;13.95;70.60
42519;BME280;28147;47.520;18.920;2022-11-04T03:42:42;97972.41;;;14.38;69.15
42519;BME280;28147;47.520;18.920;2022-11-04T03:45:10;97971.88;;;14.41;68.97
42519;BME280;28147;47.520;18.920;2022-11-04T03:47:35;97961.72;;;14.17;69.24
42519;BME280;28147;47.520;18.920;2022-11-04T03:50:11;97951.00;;;14.17;69.68
42519;BME280;28147;47.520;18.920;2022-11-04T03:52:39;97948.06;;;14.29;69.41
42519;BME280;28147;47.520;18.920;2022-11-04T03:55:06;97945.09;;;14.30;69.41
42519;BME280;28147;47.520;18.920;2022-11-04T03:58:08;97940.78;;;13.78;70.84
42519;BME280;28147;47.520;18.920;2022-11-04T04:00:48;97930.09;;;13.83;71.14
42519;BME280;28147;47.520;18.920;2022-11-04T04:03:18;97928.69;;;13.45;72.70
42519;BME280;28147;47.520;18.920;2022-11-04T04:05:56;97926.25;;;13.33;73.40
42519;BME280;28147;47.520;18.920;2022-11-04T04:08:34;97925.00;;;14.28;70.25
42519;BME280;28147;47.520;18.920;2022-11-04T04:11:09;97931.19;;;14.03;70.86
42519;BME280;28147;47.520;18.920;2022-11-04T04:13:46;97928.50;;;14.28;69.66
42519;BME280;28147;47.520;18.920;2022-11-04T04:16:28;97925.81;;;13.98;70.41
42519;BME280;28147;47.520;18.920;2022-11-04T04:19:15;97918.06;;;14.06;70.17
42519;BME280;28147;47.520;18.920;2022-11-04T04:24:12;97921.00;;;13.84;71.50
42519;BME280;28147;47.520;18.920;2022-11-04T04:26:58;97929.31;;;14.03;70.43
42519;BME280;28147;47.520;18.920;2022-11-04T04:29:44;97917.78;;;14.33;69.07
42519;BME280;28147;47.520;18.920;2022-11-04T04:32:12;97919.38;;;14.09;69.53
42519;BME280;28147;47.520;18.920;2022-11-04T04:34:38;97919.41;;;13.88;69.75
42519;BME280;28147;47.520;18.920;2022-11-04T04:37:24;97916.19;;;13.97;69.71
42519;BME280;28147;47.520;18.920;2022-11-04T04:39:57;97917.00;;;13.87;70.30
42519;BME280;28147;47.520;18.920;2022-11-04T04:42:42;97916.19;;;13.97;69.55
42519;BME280;28147;47.520;18.920;2022-11-04T04:45:30;97910.84;;;14.12;69.13
42519;BME280;28147;47.520;18.920;2022-11-04T04:47:57;97914.88;;;14.09;69.23
42519;BME280;28147;47.520;18.920;2022-11-04T04:50:26;97915.38;;;14.47;67.64
42519;BME280;28147;47.520;18.920;2022-11-04T04:52:52;97916.19;;;14.12;68.46
42519;BME280;28147;47.520;18.920;2022-11-04T04:55:19;97898.50;;;14.52;67.11
42519;BME280;28147;47.520;18.920;2022-11-04T04:57:44;97901.97;;;14.47;67.07
42519;BME280;28147;47.520;18.920;2022-11-04T05:00:15;97893.44;;;14.15;68.18
42519;BME280;28147;47.520;18.920;2022-11-04T05:02:42;97890.47;;;14.16;68.65
42519;BME280;28147;47.520;18.920;2022-11-04T05:05:07;97916.72;;;14.24;67.98
42519;BME280;28147;47.520;18.920;2022-11-04T05:07:33;97915.63;;;14.46;67.72
42519;BME280;28147;47.520;18.920;2022-11-04T05:09:58;97907.88;;;14.34;67.86
42519;BME280;28147;47.520;18.920;2022-11-04T05:12:24;97918.59;;;14.24;68.51
42519;BME280;28147;47.520;18.920;2022-11-04T05:14:49;97912.72;;;14.22;68.39
42519;BME280;28147;47.520;18.920;2022-11-04T05:17:15;97915.38;;;13.96;69.49
42519;BME280;28147;47.520;18.920;2022-11-04T05:19:40;97912.72;;;14.32;68.02
42519;BME280;28147;47.520;18.920;2022-11-04T05:22:06;97929.03;;;14.30;68.30
42519;BME280;28147;47.520;18.920;2022-11-04T05:24:31;97914.84;;;14.50;67.69
42519;BME280;28147;47.520;18.920;2022-11-04T05:26:57;97909.50;;;14.25;68.29
42519;BME280;28147;47.520;18.920;2022-11-04T05:29:22;97907.91;;;14.14;68.83
42519;BME280;28147;47.520;18.920;2022-11-04T05:31:47;97898.53;;;14.01;68.94
42519;BME280;28147;47.520;18.920;2022-11-04T05:34:13;97894.25;;;13.95;69.61
42519;BME280;28147;47.520;18.920;2022-11-04T05:36:39;97880.59;;;13.71;70.29
42519;BME280;28147;47.520;18.920;2022-11-04T05:39:04;97882.72;;;14.15;69.13
42519;BME280;28147;47.520;18.920;2022-11-04T05:41:31;97880.88;;;13.84;69.03
42519;BME280;28147;47.520;18.920;2022-11-04T05:43:58;97894.25;;;13.90;69.84
42519;BME280;28147;47.520;18.920;2022-11-04T05:46:25;97898.53;;;14.06;69.13
42519;BME280;28147;47.520;18.920;2022-11-04T05:48:51;97901.47;;;14.20;68.31
42519;BME280;28147;47.520;18.920;2022-11-04T05:51:19;97899.31;;;14.52;67.55
42519;BME280;28147;47.520;18.920;2022-11-04T05:53:45;97905.22;;;14.19;68.01
42519;BME280;28147;47.520;18.920;2022-11-04T05:56:10;97903.06;;;14.00;68.71
42519;BME280;28147;47.520;18.920;2022-11-04T05:58:35;97899.56;;;14.35;67.75
42519;BME280;28147;47.520;18.920;2022-11-04T06:03:35;97900.66;;;14.29;67.66
42519;BME280;28147;47.520;18.920;2022-11-04T06:06:01;97906.00;;;14.29;67.29
42519;BME280;28147;47.520;18.920;2022-11-04T06:08:26;97917.00;;;14.33;67.41
42519;BME280;28147;47.520;18.920;2022-11-04T06:10:51;97912.41;;;14.39;66.85
42519;BME280;28147;47.520;18.920;2022-11-04T06:13:17;97909.22;;;14.31;67.08
42519;BME280;28147;47.520;18.920;2022-11-04T06:15:42;97908.72;;;14.14;67.90
42519;BME280;28147;47.520;18.920;2022-11-04T06:18:08;97909.47;;;14.35;67.31
42519;BME280;28147;47.520;18.920;2022-11-04T06:23:34;97910.81;;;14.63;66.23
42519;BME280;28147;47.520;18.920;2022-11-04T06:25:59;97912.94;;;14.35;66.96
42519;BME280;28147;47.520;18.920;2022-11-04T06:28:25;97914.59;;;14.52;66.78
42519;BME280;28147;47.520;18.920;2022-11-04T06:30:50;97908.69;;;14.24;67.24
42519;BME280;28147;47.520;18.920;2022-11-04T06:33:15;97910.31;;;13.84;68.96
42519;BME280;28147;47.520;18.920;2022-11-04T06:35:41;97919.13;;;14.00;68.31
42519;BME280;28147;47.520;18.920;2022-11-04T06:38:06;97915.66;;;14.15;67.67
42519;BME280;28147;47.520;18.920;2022-11-04T06:40:31;97908.16;;;13.76;69.24
42519;BME280;28147;47.520;18.920;2022-11-04T06:42:57;97911.09;;;14.16;67.96
42519;BME280;28147;47.520;18.920;2022-11-04T06:45:22;97912.97;;;14.25;67.50
42519;BME280;28147;47.520;18.920;2022-11-04T06:47:48;97915.13;;;13.87;68.81
42519;BME280;28147;47.520;18.920;2022-11-04T06:50:13;97903.59;;;13.61;69.97
42519;BME280;28147;47.520;18.920;2022-11-04T06:52:39;97904.34;;;13.47;70.37
42519;BME280;28147;47.520;18.920;2022-11-04T06:55:05;97901.69;;;13.52;70.62
42519;BME280;28147;47.520;18.920;2022-11-04T06:57:31;97901.41;;;13.43;71.11
42519;BME280;28147;47.520;18.920;2022-11-04T06:59:56;97901.16;;;13.50;70.74
42519;BME280;28147;47.520;18.920;2022-11-04T07:02:21;97905.47;;;14.48;69.15
42519;BME280;28147;47.520;18.920;2022-11-04T07:04:47;97913.50;;;13.76;69.48
42519;BME280;28147;47.520;18.920;2022-11-04T07:07:13;97904.94;;;13.64;69.95
42519;BME280;28147;47.520;18.920;2022-11-04T07:09:38;97911.84;;;13.55;71.00
42519;BME280;28147;47.520;18.920;2022-11-04T07:12:04;97911.81;;;13.39;70.98
42519;BME280;28147;47.520;18.920;2022-11-04T07:14:29;97911.34;;;13.63;70.30
42519;BME280;28147;47.520;18.920;2022-11-04T07:16:55;97916.09;;;13.30;70.97
42519;BME280;28147;47.520;18.920;2022-11-04T07:19:20;97916.97;;;13.56;70.31
42519;BME280;28147;47.520;18.920;2022-11-04T07:21:46;97918.59;;;13.68;69.61
42519;BME280;28147;47.520;18.920;2022-11-04T07:24:11;97914.53;;;13.50;70.04
42519;BME280;28147;47.520;18.920;2022-11-04T07:26:37;97918.00;;;13.45;70.52
42519;BME280;28147;47.520;18.920;2022-11-04T07:29:02;97916.94;;;13.51;70.13
42519;BME280;28147;47.520;18.920;2022-11-04T07:31:29;97922.97;;;12.69;72.55
42519;BME280;28147;47.520;18.920;2022-11-04T07:33:55;97918.19;;;13.28;71.26
42519;BME280;28147;47.520;18.920;2022-11-04T07:36:20;97914.56;;;13.65;69.50
42519;BME280;28147;47.520;18.920;2022-11-04T07:38:46;97913.66;;;13.24;70.68
42519;BME280;28147;47.520;18.920;2022-11-04T07:41:12;97915.56;;;13.33;70.42
42519;BME280;28147;47.520;18.920;2022-11-04T07:43:38;97912.16;;;13.74;69.16
42519;BME280;28147;47.520;18.920;2022-11-04T07:46:10;97907.25;;;13.30;69.92
42519;BME280;28147;47.520;18.920;2022-11-04T07:48:36;97908.50;;;13.07;71.25
42519;BME280;28147;47.520;18.920;2022-11-04T07:51:03;97902.03;;;13.03;71.52
42519;BME280;28147;47.520;18.920;2022-11-04T07:53:29;97894.63;;;13.20;70.74
42519;BME280;28147;47.520;18.920;2022-11-04T07:55:55;97897.81;;;13.07;70.78
42519;BME280;28147;47.520;18.920;2022-11-04T07:58:22;97893.22;;;13.02;71.23
42519;BME280;28147;47.520;18.920;2022-11-04T08:00:48;97885.59;;;13.36;69.72
42519;BME280;28147;47.520;18.920;2022-11-04T08:03:14;97886.19;;;13.49;69.13
42519;BME280;28147;47.520;18.920;2022-11-04T08:05:39;97890.72;;;13.48;69.42
42519;BME280;28147;47.520;18.920;2022-11-04T08:08:05;97887.28;;;13.73;68.18
42519;BME280;28147;47.520;18.920;2022-11-04T08:10:30;97889.72;;;14.05;67.32
42519;BME280;28147;47.520;18.920;2022-11-04T08:12:56;97889.69;;;14.00;67.30
42519;BME280;28147;47.520;18.920;2022-11-04T08:15:21;97884.84;;;13.46;69.03
42519;BME280;28147;47.520;18.920;2022-11-04T08:17:47;97881.38;;;13.71;68.65
42519;BME280;28147;47.520;18.920;2022-11-04T08:20:12;97874.41;;;13.55;68.89
42519;BME280;28147;47.520;18.920;2022-11-04T08:22:38;97867.88;;;13.10;70.26
42519;BME280;28147;47.520;18.920;2022-11-04T08:25:04;97870.13;;;13.33;69.98
42519;BME280;28147;47.520;18.920;2022-11-04T08:27:31;97879.25;;;13.53;69.26
42519;BME280;28147;47.520;18.920;2022-11-04T08:29:56;97880.28;;;13.52;68.70
42519;BME280;28147;47.520;18.920;2022-11-04T08:32:22;97866.97;;;13.72;67.80
42519;BME280;28147;47.520;18.920;2022-11-04T08:34:48;97861.53;;;13.36;69.12
42519;BME280;28147;47.520;18.920;2022-11-04T08:37:16;97866.69;;;13.74;67.91
42519;BME280;28147;47.520;18.920;2022-11-04T08:39:42;97871.78;;;13.91;67.34
42519;BME280;28147;47.520;18.920;2022-11-04T08:42:08;97868.28;;;13.54;68.51
42519;BME280;28147;47.520;18.920;2022-11-04T08:44:33;97866.22;;;12.99;70.47
42519;BME280;28147;47.520;18.920;2022-11-04T08:46:59;97862.00;;;13.18;70.06
42519;BME280;28147;47.520;18.920;2022-11-04T08:49:25;97861.56;;;13.47;68.57
42519;BME280;28147;47.520;18.920;2022-11-04T08:51:50;97861.03;;;13.45;68.79
42519;BME280;28147;47.520;18.920;2022-11-04T08:54:22;97855.69;;;13.50;68.67
42519;BME280;28147;47.520;18.920;2022-11-04T08:56:48;97854.91;;;13.75;67.87
42519;BME280;28147;47.520;18.920;2022-11-04T08:59:13;97860.81;;;13.87;67.49
42519;BME280;28147;47.520;18.920;2022-11-04T09:01:39;97846.38;;;13.83;67.39
42519;BME280;28147;47.520;18.920;2022-11-04T09:04:05;97844.47;;;13.99;66.83
42519;BME280;28147;47.520;18.920;2022-11-04T09:06:33;97845.00;;;14.01;66.66
42519;BME280;28147;47.520;18.920;2022-11-04T09:09:00;97847.97;;;13.69;68.11
42519;BME280;28147;47.520;18.920;2022-11-04T09:11:33;97829.78;;;13.91;67.52
42519;BME280;28147;47.520;18.920;2022-11-04T09:14:01;97832.44;;;13.45;69.56
42519;BME280;28147;47.520;18.920;2022-11-04T09:16:30;97826.28;;;13.55;69.24
42519;BME280;28147;47.520;18.920;2022-11-04T09:18:56;97824.69;;;13.49;69.89
42519;BME280;28147;47.520;18.920;2022-11-04T09:21:24;97822.81;;;13.70;68.48
42519;BME280;28147;47.520;18.920;2022-11-04T09:23:49;97825.47;;;13.39;69.67
42519;BME280;28147;47.520;18.920;2022-11-04T09:26:15;97832.31;;;13.04;70.25
42519;BME280;28147;47.520;18.920;2022-11-04T09:28:41;97819.84;;;13.30;69.89
42519;BME280;28147;47.520;18.920;2022-11-04T09:31:09;97820.94;;;13.55;69.70
42519;BME280;28147;47.520;18.920;2022-11-04T09:33:35;97820.41;;;13.58;69.26
42519;BME280;28147;47.520;18.920;2022-11-04T09:36:00;97820.94;;;13.70;68.40
42519;BME280;28147;47.520;18.920;2022-11-04T09:38:27;97817.19;;;13.66;68.15
42519;BME280;28147;47.520;18.920;2022-11-04T09:40:53;97817.72;;;13.88;67.56
42519;BME280;28147;47.520;18.920;2022-11-04T09:43:27;97798.72;;;13.85;67.82
42519;BME280;28147;47.520;18.920;2022-11-04T09:45:57;97799.56;;;13.50;68.24
42519;BME280;28147;47.520;18.920;2022-11-04T09:48:44;97797.94;;;13.38;69.71
42519;BME280;28147;47.520;18.920;2022-11-04T09:51:12;97796.34;;;13.83;68.63
42519;BME280;28147;47.520;18.920;2022-11-04T09:53:46;97797.41;;;13.87;68.26
42519;BME280;28147;47.520;18.920;2022-11-04T09:56:16;97796.06;;;13.70;68.54
42519;BME280;28147;47.520;18.920;2022-11-04T09:58:44;97783.44;;;13.19;70.08
42519;BME280;28147;47.520;18.920;2022-11-04T10:06:49;97769.34;;;13.49;69.70
42519;BME280;28147;47.520;18.920;2022-11-04T10:15:15;97752.47;;;13.54;69.60
42519;BME280;28147;47.520;18.920;2022-11-04T10:20:40;97749.53;;;13.40;69.96
42519;BME280;28147;47.520;18.920;2022-11-04T10:28:10;97732.44;;;13.46;69.77
42519;BME280;28147;47.520;18.920;2022-11-04T10:30:40;97731.06;;;13.59;69.11
42519;BME280;28147;47.520;18.920;2022-11-04T10:33:34;97743.41;;;13.60;69.77
42519;BME280;28147;47.520;18.920;2022-11-04T10:36:09;97736.16;;;13.40;69.64
42519;BME280;28147;47.520;18.920;2022-11-04T10:38:45;97733.75;;;13.44;69.46
42519;BME280;28147;47.520;18.920;2022-11-04T10:41:25;97734.28;;;13.66;69.14
42519;BME280;28147;47.520;18.920;2022-11-04T10:44:18;97739.66;;;13.61;68.55
42519;BME280;28147;47.520;18.920;2022-11-04T10:52:14;97707.50;;;13.71;68.87
42519;BME280;28147;47.520;18.920;2022-11-04T10:54:42;97721.19;;;13.39;69.92
42519;BME280;28147;47.520;18.920;2022-11-04T10:57:10;97720.66;;;13.32;70.77
42519;BME280;28147;47.520;18.920;2022-11-04T11:00:00;97718.22;;;13.00;70.76
42519;BME280;28147;47.520;18.920;2022-11-04T11:07:46;97703.81;;;13.62;69.70
42519;BME280;28147;47.520;18.920;2022-11-04T11:17:16;97713.94;;;13.80;69.57
42519;BME280;28147;47.520;18.920;2022-11-04T11:20:17;97715.31;;;13.42;70.69
42519;BME280;28147;47.520;18.920;2022-11-04T11:22:47;97710.75;;;13.58;70.44
42519;BME280;28147;47.520;18.920;2022-11-04T11:25:34;97704.22;;;14.10;68.89
42519;BME280;28147;47.520;18.920;2022-11-04T11:28:12;97698.41;;;13.87;69.50
42519;BME280;28147;47.520;18.920;2022-11-04T11:52:34;97694.59;;;14.04;69.62
42519;BME280;28147;47.520;18.920;2022-11-04T11:55:27;97676.91;;;14.13;69.07
42519;BME280;28147;47.520;18.920;2022-11-04T12:09:20;97650.44;;;14.06;69.35
42519;BME280;28147;47.520;18.920;2022-11-04T12:12:01;97651.19;;;14.17;68.80
42519;BME280;28147;47.520;18.920;2022-11-04T12:17:38;97633.59;;;14.06;69.70
42519;BME280;28147;47.520;18.920;2022-11-04T12:32:26;97599.50;;;14.17;69.19
42519;BME280;28147;47.520;18.920;2022-11-04T12:37:37;97581.81;;;14.26;69.12
42519;BME280;28147;47.520;18.920;2022-11-04T12:40:19;97576.00;;;14.14;69.23
42519;BME280;28147;47.520;18.920;2022-11-04T12:50:56;97581.59;;;14.17;69.57
42519;BME280;28147;47.520;18.920;2022-11-04T12:56:16;97575.00;;;13.99;70.34
42519;BME280;28147;47.520;18.920;2022-11-04T13:01:38;97576.00;;;14.14;69.88
42519;BME280;28147;47.520;18.920;2022-11-04T13:04:13;97568.63;;;14.34;68.98
42519;BME280;28147;47.520;18.920;2022-11-04T13:07:00;97560.16;;;14.22;69.46
42519;BME280;28147;47.520;18.920;2022-11-04T13:09:58;97566.22;;;13.88;70.81
42519;BME280;28147;47.520;18.920;2022-11-04T13:12:31;97555.06;;;13.76;71.25
42519;BME280;28147;47.520;18.920;2022-11-04T13:15:04;97554.56;;;13.64;71.90
42519;BME280;28147;47.520;18.920;2022-11-04T13:17:35;97548.38;;;13.74;71.55
42519;BME280;28147;47.520;18.920;2022-11-04T13:20:18;97543.22;;;13.87;70.97
42519;BME280;28147;47.520;18.920;2022-11-04T13:22:48;97554.94;;;14.02;70.54
42519;BME280;28147;47.520;18.920;2022-11-04T13:27:45;97553.53;;;14.09;70.51
42519;BME280;28147;47.520;18.920;2022-11-04T13:41:39;97540.97;;;14.05;71.10
42519;BME280;28147;47.520;18.920;2022-11-04T13:44:19;97536.78;;;14.33;69.87
42519;BME280;28147;47.520;18.920;2022-11-04T13:46:48;97549.09;;;14.34;69.75
42519;BME280;28147;47.520;18.920;2022-11-04T13:49:24;97554.09;;;14.51;68.89
42519;BME280;28147;47.520;18.920;2022-11-04T13:52:11;97558.50;;;14.26;69.79
42519;BME280;28147;47.520;18.920;2022-11-04T13:54:51;97553.09;;;14.36;69.15
42519;BME280;28147;47.520;18.920;2022-11-04T13:57:31;97559.19;;;14.47;68.64
42519;BME280;28147;47.520;18.920;2022-11-04T14:02:47;97547.66;;;14.47;69.36
42519;BME280;28147;47.520;18.920;2022-11-04T14:13:43;97537.53;;;14.39;69.96
42519;BME280;28147;47.520;18.920;2022-11-04T14:18:46;97543.47;;;13.86;72.20
42519;BME280;28147;47.520;18.920;2022-11-04T14:21:15;97534.19;;;14.23;70.83
42519;BME280;28147;47.520;18.920;2022-11-04T14:24:00;97522.22;;;14.10;71.39
42519;BME280;28147;47.520;18.920;2022-11-04T14:26:44;97520.38;;;14.05;71.62
42519;BME280;28147;47.520;18.920;2022-11-04T14:31:48;97505.22;;;13.85;71.92
42519;BME280;28147;47.520;18.920;2022-11-04T14:36:56;97537.66;;;14.23;71.16
42519;BME280;28147;47.520;18.920;2022-11-04T14:39:26;97540.16;;;14.49;70.20
42519;BME280;28147;47.520;18.920;2022-11-04T14:44:42;97500.59;;;14.41;70.35
42519;BME280;28147;47.520;18.920;2022-11-04T14:47:28;97493.72;;;14.29;70.98
42519;BME280;28147;47.520;18.920;2022-11-04T14:52:33;97493.81;;;14.14;71.50
42519;BME280;28147;47.520;18.920;2022-11-04T14:55:22;97490.94;;;14.05;72.29
42519;BME280;28147;47.520;18.920;2022-11-04T14:57:50;97500.97;;;14.24;71.44
42519;BME280;28147;47.520;18.920;2022-11-04T15:00:36;97490.59;;;14.17;71.82
42519;BME280;28147;47.520;18.920;2022-11-04T15:05:32;97489.19;;;14.25;71.92
42519;BME280;28147;47.520;18.920;2022-11-04T15:08:02;97497.75;;;14.27;71.39
42519;BME280;28147;47.520;18.920;2022-11-04T15:10:28;97497.28;;;14.54;70.75
42519;BME280;28147;47.520;18.920;2022-11-04T15:12:59;97495.31;;;14.30;70.84
42519;BME280;28147;47.520;18.920;2022-11-04T15:15:34;97494.69;;;14.39;71.30
42519;BME280;28147;47.520;18.920;2022-11-04T15:18:11;97496.38;;;14.29;71.24
42519;BME280;28147;47.520;18.920;2022-11-04T15:20:47;97501.63;;;14.10;72.28
42519;BME280;28147;47.520;18.920;2022-11-04T15:23:19;97491.84;;;14.30;71.86
42519;BME280;28147;47.520;18.920;2022-11-04T15:25:47;97490.88;;;14.55;70.91
42519;BME280;28147;47.520;18.920;2022-11-04T15:28:34;97482.00;;;14.20;72.23
42519;BME280;28147;47.520;18.920;2022-11-04T15:33:36;97480.47;;;14.43;71.08
42519;BME280;28147;47.520;18.920;2022-11-04T15:36:04;97476.16;;;14.52;71.01
42519;BME280;28147;47.520;18.920;2022-11-04T15:38:31;97475.94;;;14.09;72.53
42519;BME280;28147;47.520;18.920;2022-11-04T15:40:57;97479.06;;;14.22;72.64
42519;BME280;28147;47.520;18.920;2022-11-04T15:43:44;97484.47;;;14.51;71.60
42519;BME280;28147;47.520;18.920;2022-11-04T15:46:16;97484.47;;;14.46;71.53
42519;BME280;28147;47.520;18.920;2022-11-04T15:48:42;97485.38;;;14.36;72.24
42519;BME280;28147;47.520;18.920;2022-11-04T15:56:27;97504.75;;;14.57;71.59
42519;BME280;28147;47.520;18.920;2022-11-04T15:58:55;97507.44;;;14.57;71.25
42519;BME280;28147;47.520;18.920;2022-11-04T16:01:22;97511.88;;;14.72;70.94
42519;BME280;28147;47.520;18.920;2022-11-04T16:04:07;97489.84;;;14.51;70.77
42519;BME280;28147;47.520;18.920;2022-11-04T16:06:37;97512.13;;;14.99;69.73
42519;BME280;28147;47.520;18.920;2022-11-04T16:11:33;97516.22;;;14.92;69.83